Time;durP1;ratioP1;P1;durP2;ratioP2;P2;SDS_P1;SDS_P2;PMS_P1;PMS_P2;Temp;Humidity;BMP_temperature;BMP_pressure;BME280_temperature;BME280_humidity;BME280_pressure;Samples;Min_cycle;Max_cycle;Signal;HPM_P1;HPM_P2
2021/09/07 00:02:18;;;;;;;;;10.75;10.25;;;;;-147.91;100.00;58652.34;5035447;28;45585;-79
2021/09/07 00:04:43;;;;;;;;;11.00;10.75;;;;;-147.91;100.00;58652.34;5049897;27;46138;-79
2021/09/07 00:07:09;;;;;;;;;11.25;9.75;;;;;-147.91;100.00;58652.34;5053264;27;45402;-79
2021/09/07 00:09:34;;;;;;;;;14.50;12.25;;;;;-147.91;100.00;58652.34;5042535;28;45936;-81
2021/09/07 00:12:00;;;;;;;;;9.00;8.50;;;;;-147.91;100.00;58652.34;5055226;27;45644;-79
2021/09/07 00:14:26;;;;;;;;;13.25;11.75;;;;;-147.91;100.00;58652.34;5034125;28;46737;-79
2021/09/07 00:16:51;;;;;;;;;15.75;11.75;;;;;-147.91;100.00;58652.34;5057082;27;45854;-79
2021/09/07 00:19:16;;;;;;;;;12.75;11.75;;;;;-147.91;100.00;58652.34;5035199;28;46965;-79
2021/09/07 00:21:42;;;;;;;;;12.00;10.75;;;;;-147.91;100.00;58652.34;5050955;27;45681;-80
2021/09/07 00:24:07;;;;;;;;;14.25;12.00;;;;;-147.91;100.00;58652.34;5061685;27;46031;-79
2021/09/07 00:26:33;;;;;;;;;11.50;10.00;;;;;-147.91;100.00;58652.34;5051275;27;45706;-79
2021/09/07 00:28:58;;;;;;;;;12.00;11.00;;;;;-147.91;100.00;58652.34;5059452;27;45801;-79
2021/09/07 00:31:24;;;;;;;;;15.00;12.00;;;;;-147.91;100.00;58652.34;5031831;28;46352;-79
2021/09/07 00:33:49;;;;;;;;;10.00;10.00;;;;;-147.91;100.00;58652.34;5051525;27;46604;-80
2021/09/07 00:36:15;;;;;;;;;15.50;11.00;;;;;-147.91;100.00;58652.34;5052184;27;46094;-80
2021/09/07 00:38:40;;;;;;;;;13.25;9.50;;;;;-147.91;100.00;58652.34;5033675;28;45391;-79
2021/09/07 00:41:06;;;;;;;;;10.00;9.50;;;;;-147.91;100.00;58652.34;5060857;27;45660;-79
2021/09/07 00:43:31;;;;;;;;;13.25;11.25;;;;;-147.91;100.00;58652.34;5055362;28;45572;-79
2021/09/07 00:45:57;;;;;;;;;12.50;10.25;;;;;-147.91;100.00;58652.34;5056753;27;48083;-79
2021/09/07 00:48:23;;;;;;;;;12.50;9.75;;;;;-147.91;100.00;58652.34;5051061;27;46284;-79
2021/09/07 00:50:48;;;;;;;;;12.25;11.00;;;;;-147.91;100.00;58652.34;5030761;28;45723;-79
2021/09/07 00:53:15;;;;;;;;;14.00;12.25;;;;;-147.91;100.00;58652.34;5050984;27;46926;-80
2021/09/07 00:55:45;;;;;;;;;13.00;10.25;;;;;-147.91;100.00;58652.34;5045018;28;46233;-79
2021/09/07 00:58:14;;;;;;;;;10.00;7.50;;;;;-147.91;100.00;58652.34;5048558;27;45564;-80
2021/09/07 01:00:42;;;;;;;;;10.00;9.50;;;;;-147.91;100.00;58652.34;5051926;27;46103;-79
2021/09/07 01:03:08;;;;;;;;;11.00;9.25;;;;;-147.91;100.00;58652.34;5035814;28;47594;-79
2021/09/07 01:05:35;;;;;;;;;14.50;12.50;;;;;-147.91;100.00;58652.34;5048744;27;45811;-79
2021/09/07 01:08:01;;;;;;;;;13.00;11.00;;;;;-147.91;100.00;58652.34;5052514;27;49269;-79
2021/09/07 01:10:26;;;;;;;;;10.25;10.00;;;;;-147.91;100.00;58652.34;5049793;27;45626;-79
2021/09/07 01:12:52;;;;;;;;;10.00;10.00;;;;;-147.91;100.00;58652.34;5033541;28;48354;-79
2021/09/07 01:15:18;;;;;;;;;11.50;11.50;;;;;-147.91;100.00;58652.34;5034644;28;45607;-83
2021/09/07 01:17:43;;;;;;;;;12.00;10.75;;;;;-147.91;100.00;58652.34;5056191;28;45505;-79
2021/09/07 01:20:09;;;;;;;;;12.00;10.75;;;;;-147.91;100.00;58652.34;5030116;28;45516;-82
2021/09/07 01:22:35;;;;;;;;;12.00;9.50;;;;;-147.91;100.00;58652.34;5038436;28;47209;-80
2021/09/07 01:25:00;;;;;;;;;12.75;12.00;;;;;-147.91;100.00;58652.34;5050670;28;46209;-79
2021/09/07 01:27:26;;;;;;;;;14.50;12.75;;;;;-147.91;100.00;58652.34;5035004;28;50601;-79
2021/09/07 01:29:51;;;;;;;;;10.00;10.00;;;;;-147.91;100.00;58652.34;5049968;28;45533;-79
2021/09/07 01:32:21;;;;;;;;;14.00;10.50;;;;;-147.91;100.00;58652.34;5049203;27;45692;-79
2021/09/07 01:34:47;;;;;;;;;12.75;11.00;;;;;-147.91;100.00;58652.34;5054190;27;45549;-79
2021/09/07 01:37:13;;;;;;;;;10.25;10.25;;;;;-147.91;100.00;58652.34;5049228;28;46254;-79
2021/09/07 01:39:39;;;;;;;;;11.00;10.75;;;;;-147.91;100.00;58652.34;5047982;27;45474;-80
2021/09/07 01:42:06;;;;;;;;;14.50;11.25;;;;;-147.91;100.00;58652.34;5060693;28;45576;-80
2021/09/07 01:44:32;;;;;;;;;11.25;10.00;;;;;-147.91;100.00;58652.34;5049903;27;45393;-80
2021/09/07 01:46:58;;;;;;;;;17.00;13.00;;;;;-147.91;100.00;58652.34;5039029;28;45569;-79
2021/09/07 01:49:24;;;;;;;;;13.75;12.75;;;;;-147.91;100.00;58652.34;5031441;28;45645;-80
2021/09/07 01:51:49;;;;;;;;;15.50;11.00;;;;;-147.91;100.00;58652.34;5049821;27;45627;-79
2021/09/07 01:54:15;;;;;;;;;11.50;11.00;;;;;-147.91;100.00;58652.34;5048610;27;45738;-79
2021/09/07 01:56:42;;;;;;;;;13.75;11.75;;;;;-147.91;100.00;58652.34;5055889;27;56134;-79
2021/09/07 01:59:07;;;;;;;;;10.25;10.00;;;;;-147.91;100.00;58652.34;5056774;28;45441;-80
2021/09/07 02:01:33;;;;;;;;;12.75;10.75;;;;;-147.91;100.00;58652.34;5057656;28;45761;-79
2021/09/07 02:03:58;;;;;;;;;14.50;11.50;;;;;-147.91;100.00;58652.34;5034873;28;45616;-79
2021/09/07 02:06:24;;;;;;;;;13.25;11.00;;;;;-147.91;100.00;58652.34;5055061;27;45895;-79
2021/09/07 02:08:50;;;;;;;;;12.00;10.00;;;;;-147.91;100.00;58652.34;5056541;27;45629;-79
2021/09/07 02:11:15;;;;;;;;;11.00;10.75;;;;;-147.91;100.00;58652.34;5054646;27;45723;-80
2021/09/07 02:13:41;;;;;;;;;12.50;11.00;;;;;-147.91;100.00;58652.34;5050527;28;45676;-79
2021/09/07 02:16:06;;;;;;;;;15.00;12.00;;;;;-147.91;100.00;58652.34;5040629;28;51100;-80
2021/09/07 02:18:32;;;;;;;;;12.00;10.75;;;;;-147.91;100.00;58652.34;5030731;28;45568;-79
2021/09/07 02:20:57;;;;;;;;;10.25;10.25;;;;;-147.91;100.00;58652.34;5050083;27;45576;-79
2021/09/07 02:23:23;;;;;;;;;15.00;11.50;;;;;-147.91;100.00;58652.34;5029115;28;45501;-80
2021/09/07 02:25:48;;;;;;;;;12.00;11.00;;;;;-147.91;100.00;58652.34;5053079;27;45762;-80
2021/09/07 02:28:14;;;;;;;;;11.75;9.00;;;;;-147.91;100.00;58652.34;5054069;27;45533;-80
2021/09/07 02:30:39;;;;;;;;;12.75;10.25;;;;;-147.91;100.00;58652.34;5052268;27;49555;-80
2021/09/07 02:33:05;;;;;;;;;15.00;11.50;;;;;-147.91;100.00;58652.34;5055443;28;46038;-79
2021/09/07 02:35:33;;;;;;;;;11.75;9.00;;;;;-147.91;100.00;58652.34;5052473;27;45518;-79
2021/09/07 02:37:59;;;;;;;;;11.25;9.00;;;;;-147.91;100.00;58652.34;5039786;28;45559;-79
2021/09/07 02:40:25;;;;;;;;;14.00;11.25;;;;;-147.91;100.00;58652.34;5051769;27;46348;-80
2021/09/07 02:42:51;;;;;;;;;15.25;10.75;;;;;-147.91;100.00;58652.34;5030508;27;45910;-80
2021/09/07 02:45:16;;;;;;;;;13.00;11.50;;;;;-147.91;100.00;58652.34;5040261;28;45575;-79
2021/09/07 02:47:42;;;;;;;;;13.50;11.50;;;;;-147.91;100.00;58652.34;5052959;27;45600;-80
2021/09/07 02:50:10;;;;;;;;;11.25;10.25;;;;;-147.91;100.00;58652.34;5032172;28;45605;-79
2021/09/07 02:52:35;;;;;;;;;16.25;12.25;;;;;-147.91;100.00;58652.34;5053258;28;45565;-79
2021/09/07 02:55:01;;;;;;;;;9.25;9.25;;;;;-147.91;100.00;58652.34;5050145;27;46045;-79
2021/09/07 02:57:26;;;;;;;;;14.50;11.25;;;;;-147.91;100.00;58652.34;5049971;28;45521;-79
2021/09/07 02:59:53;;;;;;;;;14.00;11.25;;;;;-147.91;100.00;58652.34;5045771;28;45517;-79
2021/09/07 03:02:19;;;;;;;;;13.25;11.25;;;;;-147.91;100.00;58652.34;5046399;28;45731;-79
2021/09/07 03:04:44;;;;;;;;;11.50;9.75;;;;;-147.91;100.00;58652.34;5052800;28;45462;-79
2021/09/07 03:07:09;;;;;;;;;13.25;13.25;;;;;-147.91;100.00;58652.34;5050968;28;45569;-80
2021/09/07 03:09:35;;;;;;;;;14.25;11.00;;;;;-147.91;100.00;58652.34;5051059;27;48579;-79
2021/09/07 03:12:00;;;;;;;;;11.00;10.75;;;;;-147.91;100.00;58652.34;5048834;27;45632;-79
2021/09/07 03:14:26;;;;;;;;;11.00;9.50;;;;;-147.91;100.00;58652.34;5032026;27;45589;-80
2021/09/07 03:16:51;;;;;;;;;15.00;11.50;;;;;-147.91;100.00;58652.34;5051947;28;45607;-79
2021/09/07 03:19:17;;;;;;;;;14.75;12.75;;;;;-147.91;100.00;58652.34;5049663;28;46289;-84
2021/09/07 03:21:42;;;;;;;;;13.50;12.00;;;;;-147.91;100.00;58652.34;5045055;27;45663;-82
2021/09/07 03:24:08;;;;;;;;;12.50;11.00;;;;;-147.91;100.00;58652.34;5049764;27;45601;-84
2021/09/07 03:26:33;;;;;;;;;15.25;12.25;;;;;-147.91;100.00;58652.34;5051757;27;45849;-85
2021/09/07 03:28:59;;;;;;;;;14.00;11.50;;;;;-147.91;100.00;58652.34;5039800;28;48123;-85
2021/09/07 03:31:24;;;;;;;;;15.75;12.50;;;;;-147.91;100.00;58652.34;5028061;28;45656;-84
2021/09/07 03:33:50;;;;;;;;;13.50;11.25;;;;;-147.91;100.00;58652.34;5043830;28;45613;-84
2021/09/07 03:36:15;;;;;;;;;10.50;9.50;;;;;-147.91;100.00;58652.34;5050824;27;45612;-85
2021/09/07 03:38:41;;;;;;;;;11.00;10.25;;;;;-147.91;100.00;58652.34;5033303;28;47115;-79
2021/09/07 03:41:06;;;;;;;;;15.50;10.75;;;;;-147.91;100.00;58652.34;5048614;28;45720;-85
2021/09/07 03:43:31;;;;;;;;;16.50;12.00;;;;;-147.91;100.00;58652.34;5056792;27;45482;-82
2021/09/07 03:45:57;;;;;;;;;18.50;13.50;;;;;-147.91;100.00;58652.34;5052024;27;45499;-83
2021/09/07 03:48:22;;;;;;;;;14.50;13.50;;;;;-147.91;100.00;58652.34;5034374;28;48445;-83
2021/09/07 03:50:48;;;;;;;;;14.50;12.00;;;;;-147.91;100.00;58652.34;5047569;27;45501;-84
2021/09/07 03:53:13;;;;;;;;;14.50;12.00;;;;;-147.91;100.00;58652.34;5048596;27;45946;-82
2021/09/07 03:55:39;;;;;;;;;17.75;12.75;;;;;-147.91;100.00;58652.34;5057729;27;45497;-85
2021/09/07 03:58:05;;;;;;;;;17.00;14.75;;;;;-147.91;100.00;58652.34;5028253;28;53582;-82
2021/09/07 04:00:30;;;;;;;;;15.75;14.25;;;;;-147.91;100.00;58652.34;5050162;28;45730;-82
2021/09/07 04:02:56;;;;;;;;;14.25;13.00;;;;;-147.91;100.00;58652.34;5049977;28;45457;-83
2021/09/07 04:05:21;;;;;;;;;15.25;14.25;;;;;-147.91;100.00;58652.34;5046223;27;49420;-84
2021/09/07 04:07:47;;;;;;;;;14.25;12.75;;;;;-147.91;100.00;58652.34;5035930;28;47208;-88
2021/09/07 04:10:12;;;;;;;;;18.25;16.50;;;;;-147.91;100.00;58652.34;5033700;28;45501;-88
2021/09/07 04:12:37;;;;;;;;;17.25;15.75;;;;;-147.91;100.00;58652.34;5055336;28;45580;-84
2021/09/07 04:15:05;;;;;;;;;17.00;15.00;;;;;-147.91;100.00;58652.34;5050995;27;45867;-86
2021/09/07 04:17:31;;;;;;;;;16.50;15.00;;;;;-147.91;100.00;58652.34;5059119;27;45592;-80
2021/09/07 04:19:56;;;;;;;;;19.50;17.25;;;;;-147.91;100.00;58652.34;5064795;27;45510;-81
2021/09/07 04:25:27;;;;;;;;;17.50;15.00;;;;;-147.91;100.00;58652.34;5037270;27;45736;-81
2021/09/07 04:27:53;;;;;;;;;17.00;14.00;;;;;-147.91;100.00;58652.34;5044378;28;46944;-82
2021/09/07 04:30:19;;;;;;;;;19.00;15.00;;;;;-147.91;100.00;58652.34;5038255;28;45742;-83
2021/09/07 04:32:44;;;;;;;;;18.00;15.00;;;;;-147.91;100.00;58652.34;5063808;27;45521;-84
2021/09/07 04:35:10;;;;;;;;;18.25;15.25;;;;;-147.91;100.00;58652.34;5057929;27;47431;-81
2021/09/07 04:37:35;;;;;;;;;18.50;16.25;;;;;-147.91;100.00;58652.34;5056940;27;55286;-81
2021/09/07 04:40:01;;;;;;;;;15.75;15.75;;;;;-147.91;100.00;58652.34;5053802;27;45705;-85
2021/09/07 04:42:26;;;;;;;;;21.50;17.00;;;;;-147.91;100.00;58652.34;5031902;28;45827;-86
2021/09/07 04:44:52;;;;;;;;;20.75;15.00;;;;;-147.91;100.00;58652.34;5051926;27;45725;-82
2021/09/07 04:47:17;;;;;;;;;13.00;13.00;;;;;-147.91;100.00;58652.34;5046824;27;47270;-83
2021/09/07 04:49:43;;;;;;;;;15.00;14.00;;;;;-147.91;100.00;58652.34;5056028;27;45454;-81
2021/09/07 04:52:08;;;;;;;;;18.00;16.25;;;;;-147.91;100.00;58652.34;5057619;28;51420;-87
2021/09/07 04:54:33;;;;;;;;;21.00;17.25;;;;;-147.91;100.00;58652.34;5040609;28;46090;-86
2021/09/07 04:57:00;;;;;;;;;17.00;15.00;;;;;-147.91;100.00;58652.34;5037536;28;48168;-87
2021/09/07 04:59:26;;;;;;;;;18.00;14.25;;;;;-147.91;100.00;58652.34;5034423;27;45809;-85
2021/09/07 05:01:51;;;;;;;;;21.75;17.50;;;;;-147.91;100.00;58652.34;5058138;27;45733;-86
2021/09/07 05:04:16;;;;;;;;;19.25;16.75;;;;;-147.91;100.00;58652.34;5049386;27;45557;-86
2021/09/07 05:06:42;;;;;;;;;20.00;17.50;;;;;-147.91;100.00;58652.34;5030441;28;47239;-86
2021/09/07 05:09:07;;;;;;;;;19.50;19.00;;;;;-147.91;100.00;58652.34;5053172;28;45671;-86
2021/09/07 05:11:33;;;;;;;;;20.50;16.50;;;;;-147.91;100.00;58652.34;5058224;28;45617;-86
2021/09/07 05:13:58;;;;;;;;;22.25;19.50;;;;;-147.91;100.00;58652.34;5054156;27;50626;-86
2021/09/07 05:16:24;;;;;;;;;20.50;19.25;;;;;-147.91;100.00;58652.34;5055456;27;45464;-87
2021/09/07 05:18:49;;;;;;;;;24.25;17.50;;;;;-147.91;100.00;58652.34;5054204;28;45536;-81
2021/09/07 05:21:14;;;;;;;;;17.00;13.50;;;;;-147.91;100.00;58652.34;5056379;27;47974;-79
2021/09/07 05:23:40;;;;;;;;;21.75;17.00;;;;;-147.91;100.00;58652.34;5049542;27;46076;-80
2021/09/07 05:26:07;;;;;;;;;21.25;17.25;;;;;-147.91;100.00;58652.34;5049536;28;46166;-81
2021/09/07 05:28:33;;;;;;;;;23.00;14.50;;;;;-147.91;100.00;58652.34;5050003;27;45766;-80
2021/09/07 05:30:58;;;;;;;;;28.25;19.50;;;;;-147.91;100.00;58652.34;5040167;27;46004;-80
2021/09/07 05:33:24;;;;;;;;;20.50;17.00;;;;;-147.91;100.00;58652.34;5054035;28;45368;-81
2021/09/07 05:35:50;;;;;;;;;21.00;16.00;;;;;-147.91;100.00;58652.34;5047786;27;47169;-78
2021/09/07 05:38:16;;;;;;;;;16.50;15.00;;;;;-147.91;100.00;58652.34;5059610;27;48734;-81
2021/09/07 05:40:44;;;;;;;;;17.75;16.00;;;;;-147.91;100.00;58652.34;5079321;22;45407;-92
2021/09/07 05:43:15;;;;;;;;;18.50;16.25;;;;;-147.91;100.00;58652.34;5079630;28;45443;-92
2021/09/07 05:45:44;;;;;;;;;21.00;16.00;;;;;-147.91;100.00;58652.34;5065149;28;46467;-90
2021/09/07 05:48:22;;;;;;;;;24.25;17.75;;;;;-147.91;100.00;58652.34;5083300;28;45607;-92
2021/09/07 05:51:04;;;;;;;;;16.00;15.75;;;;;-147.91;100.00;58652.34;5083932;28;45595;-93
2021/09/07 05:57:14;;;;;;;;;18.25;16.00;;;;;-147.91;100.00;58652.34;5083529;28;45593;-93
2021/09/07 06:00:02;;;;;;;;;17.75;17.25;;;;;-147.91;100.00;58652.34;5081187;28;45415;-94
2021/09/07 06:06:00;;;;;;;;;17.50;15.75;;;;;-147.91;100.00;58652.34;5083724;28;45126;-92
2021/09/07 06:08:29;;;;;;;;;19.25;15.50;;;;;-147.91;100.00;58652.34;5065245;28;45607;-92
2021/09/07 06:10:57;;;;;;;;;20.00;16.75;;;;;-147.91;100.00;58652.34;5064945;28;45404;-93
2021/09/07 06:13:27;;;;;;;;;20.50;16.25;;;;;-147.91;100.00;58652.34;5082502;28;45196;-93
2021/09/07 06:15:54;;;;;;;;;19.00;15.75;;;;;-147.91;100.00;58652.34;5081542;28;45494;-92
2021/09/07 06:18:22;;;;;;;;;14.75;13.75;;;;;-147.91;100.00;58652.34;5082345;28;45499;-93
2021/09/07 06:20:50;;;;;;;;;18.25;17.50;;;;;-147.91;100.00;58652.34;5082455;28;45430;-93
2021/09/07 06:23:21;;;;;;;;;17.00;16.00;;;;;-147.91;100.00;58652.34;5064861;28;45466;-93
2021/09/07 06:25:48;;;;;;;;;20.25;17.00;;;;;-147.91;100.00;58652.34;5081625;28;45745;-93
2021/09/07 06:28:55;;;;;;;;;18.25;13.75;;;;;-147.91;100.00;58652.34;5083788;28;45782;-93
2021/09/07 06:31:21;;;;;;;;;16.00;16.00;;;;;-147.91;100.00;58652.34;5061584;22;47160;-79
2021/09/07 06:33:47;;;;;;;;;19.00;17.75;;;;;-147.91;100.00;58652.34;5083022;27;45449;-79
2021/09/07 06:36:12;;;;;;;;;21.00;18.75;;;;;-147.91;100.00;58652.34;5078887;27;45644;-79
2021/09/07 06:38:38;;;;;;;;;21.00;18.75;;;;;-147.91;100.00;58652.34;5082201;27;47102;-79
2021/09/07 06:41:06;;;;;;;;;16.75;16.00;;;;;-147.91;100.00;58652.34;5085542;27;44878;-80
2021/09/07 06:43:35;;;;;;;;;20.25;16.25;;;;;-147.91;100.00;58652.34;5080955;27;45513;-79
2021/09/07 06:46:11;;;;;;;;;;;;;;;;;;;;;
2021/09/07 06:48:37;;;;;;;;;20.00;16.25;;;;;-147.91;100.00;58652.34;5097336;27;75908;-79
2021/09/07 06:51:02;;;;;;;;;18.50;16.00;;;;;-147.91;100.00;58652.34;5064540;27;52567;-79
2021/09/07 06:53:38;;;;;;;;;22.00;16.50;;;;;-147.91;100.00;58652.34;5086950;27;45532;-79
2021/09/07 06:56:04;;;;;;;;;20.25;16.00;;;;;-147.91;100.00;58652.34;5086970;27;45574;-81
2021/09/07 06:58:29;;;;;;;;;17.00;16.50;;;;;-147.91;100.00;58652.34;5081910;27;45675;-79
2021/09/07 07:00:54;;;;;;;;;16.50;16.50;;;;;-147.91;100.00;58652.34;5085676;27;47959;-80
2021/09/07 07:03:20;;;;;;;;;17.75;14.00;;;;;-147.91;100.00;58652.34;5085991;27;45858;-78
2021/09/07 07:05:45;;;;;;;;;19.25;17.25;;;;;-147.91;100.00;58652.34;5079685;27;45599;-79
2021/09/07 07:08:11;;;;;;;;;20.50;17.00;;;;;-147.91;100.00;58652.34;5068479;27;46208;-80
2021/09/07 07:10:36;;;;;;;;;18.25;15.50;;;;;-147.91;100.00;58652.34;5083563;27;45797;-78
2021/09/07 07:13:02;;;;;;;;;19.25;15.00;;;;;-147.91;100.00;58652.34;5064886;27;47830;-78
2021/09/07 07:15:28;;;;;;;;;20.25;17.00;;;;;-147.91;100.00;58652.34;5087527;27;45472;-79
2021/09/07 07:17:53;;;;;;;;;19.00;17.25;;;;;-147.91;100.00;58652.34;5063505;27;47279;-78
2021/09/07 07:20:18;;;;;;;;;23.50;17.50;;;;;-147.91;100.00;58652.34;5084513;27;46293;-80
2021/09/07 07:22:44;;;;;;;;;22.25;19.75;;;;;-147.91;100.00;58652.34;5073606;27;45979;-81
2021/09/07 07:25:10;;;;;;;;;19.00;17.75;;;;;-147.91;100.00;58652.34;5057232;27;45735;-80
2021/09/07 07:27:41;;;;;;;;;20.50;15.50;;;;;-147.91;100.00;58652.34;5083384;27;46975;-80
2021/09/07 07:30:08;;;;;;;;;18.75;16.75;;;;;-147.91;100.00;58652.34;5078817;27;48642;-80
2021/09/07 07:32:33;;;;;;;;;18.00;16.50;;;;;-147.91;100.00;58652.34;5077049;27;45587;-80
2021/09/07 07:34:58;;;;;;;;;20.75;15.75;;;;;-147.91;100.00;58652.34;5079065;27;46133;-80
2021/09/07 07:37:24;;;;;;;;;19.00;17.25;;;;;-147.91;100.00;58652.34;5079232;27;47762;-80
2021/09/07 07:39:50;;;;;;;;;18.00;17.00;;;;;-147.91;100.00;58652.34;5083124;27;45452;-81
2021/09/07 07:42:15;;;;;;;;;18.75;16.75;;;;;-147.91;100.00;58652.34;5082141;27;45585;-78
2021/09/07 07:44:41;;;;;;;;;17.75;15.25;;;;;-147.91;100.00;58652.34;5059236;27;49925;-76
2021/09/07 07:47:06;;;;;;;;;20.75;16.75;;;;;-147.91;100.00;58652.34;5062254;27;48008;-79
2021/09/07 07:49:32;;;;;;;;;15.00;13.50;;;;;-147.91;100.00;58652.34;5080702;27;45500;-80
2021/09/07 07:51:57;;;;;;;;;18.50;16.25;;;;;-147.91;100.00;58652.34;5084470;27;45957;-78
2021/09/07 07:54:25;;;;;;;;;19.25;16.00;;;;;-147.91;100.00;58652.34;5078386;27;46176;-79
2021/09/07 07:56:51;;;;;;;;;18.00;15.00;;;;;-147.91;100.00;58652.34;5076772;27;48803;-80
2021/09/07 08:04:33;;;;;;;;;21.00;15.00;;;;;-147.91;100.00;58652.34;4948886;22;46398;-92
2021/09/07 08:07:00;;;;;;;;;20.50;16.75;;;;;-147.91;100.00;58652.34;5077975;28;46470;-91
2021/09/07 08:09:31;;;;;;;;;20.00;18.00;;;;;-147.91;100.00;58652.34;5081506;28;45487;-91
2021/09/07 08:11:59;;;;;;;;;17.75;13.00;;;;;-147.91;100.00;58652.34;5083396;28;45350;-93
2021/09/07 08:14:29;;;;;;;;;19.25;15.25;;;;;-147.91;100.00;58652.34;5080603;28;45613;-92
2021/09/07 08:16:58;;;;;;;;;15.00;14.25;;;;;-147.91;100.00;58652.34;5076930;28;45287;-92
2021/09/07 08:19:24;;;;;;;;;16.25;14.25;;;;;-147.91;100.00;58652.34;5095379;22;49710;-81
2021/09/07 08:21:50;;;;;;;;;21.00;18.25;;;;;-147.91;100.00;58652.34;5032014;28;46038;-81
2021/09/07 08:24:15;;;;;;;;;18.25;14.75;;;;;-147.91;100.00;58652.34;5048343;27;46456;-80
2021/09/07 08:26:41;;;;;;;;;16.50;12.50;;;;;-147.91;100.00;58652.34;5032746;28;48339;-81
2021/09/07 08:29:06;;;;;;;;;16.25;15.25;;;;;-147.91;100.00;58652.34;5053179;28;45554;-81
2021/09/07 08:31:31;;;;;;;;;16.75;14.75;;;;;-147.91;100.00;58652.34;5048825;27;45623;-81
2021/09/07 08:33:57;;;;;;;;;23.25;19.00;;;;;-147.91;100.00;58652.34;5035800;28;45604;-80
2021/09/07 08:36:23;;;;;;;;;15.75;14.50;;;;;-147.91;100.00;58652.34;5052971;27;45478;-80
2021/09/07 08:38:48;;;;;;;;;19.75;15.25;;;;;-147.91;100.00;58652.34;5049952;27;45498;-82
2021/09/07 08:41:19;;;;;;;;;16.50;15.25;;;;;-147.91;100.00;58652.34;5053593;27;45478;-81
2021/09/07 08:43:52;;;;;;;;;18.50;14.75;;;;;-147.91;100.00;58652.34;5055695;28;45568;-79
2021/09/07 08:46:29;;;;;;;;;;;;;;;;;;;;;
2021/09/07 08:49:50;;;;;;;;;15.50;14.00;;;;;-147.91;100.00;58652.34;5060098;27;72866;-80
2021/09/07 08:52:19;;;;;;;;;18.00;16.50;;;;;-147.91;100.00;58652.34;5048081;27;45485;-82
2021/09/07 08:54:45;;;;;;;;;15.75;14.00;;;;;-147.91;100.00;58652.34;5054445;27;46007;-83
2021/09/07 08:57:11;;;;;;;;;17.50;14.75;;;;;-147.91;100.00;58652.34;5033599;28;47836;-80
2021/09/07 08:59:37;;;;;;;;;15.25;13.75;;;;;-147.91;100.00;58652.34;5054846;28;45680;-80
2021/09/07 09:02:12;;;;;;;;;15.50;14.00;;;;;-147.91;100.00;58652.34;5049838;27;45816;-80
2021/09/07 09:04:38;;;;;;;;;15.75;12.75;;;;;-147.91;100.00;58652.34;5046840;27;47052;-82
2021/09/07 09:07:04;;;;;;;;;15.75;12.75;;;;;-147.91;100.00;58652.34;5055518;28;46491;-82
2021/09/07 09:09:38;;;;;;;;;15.00;13.00;;;;;-147.91;100.00;58652.34;5050463;27;45891;-82
2021/09/07 09:12:05;;;;;;;;;14.50;11.75;;;;;-147.91;100.00;58652.34;5028278;27;53917;-80
2021/09/07 09:14:39;;;;;;;;;16.50;12.50;;;;;-147.91;100.00;58652.34;5055321;28;45492;-78
2021/09/07 09:17:16;;;;;;;;;13.50;12.75;;;;;-147.91;100.00;58652.34;5051203;27;46564;-83
2021/09/07 09:20:00;;;;;;;;;17.50;14.50;;;;;-147.91;100.00;58652.34;5042774;27;46276;-83
2021/09/07 09:22:59;;;;;;;;;14.25;13.25;;;;;-147.91;100.00;58652.34;5055068;27;45600;-84
2021/09/07 09:25:27;;;;;;;;;14.75;12.75;;;;;-147.91;100.00;58652.34;4978037;28;45543;-84
2021/09/07 09:27:56;;;;;;;;;16.00;12.25;;;;;-147.91;100.00;58652.34;4982150;28;46826;-82
2021/09/07 09:30:27;;;;;;;;;13.25;13.25;;;;;-147.91;100.00;58652.34;4978803;28;45742;-84
2021/09/07 09:32:54;;;;;;;;;15.25;12.25;;;;;-147.91;100.00;58652.34;4981830;28;46065;-83
2021/09/07 09:35:21;;;;;;;;;16.25;14.75;;;;;-147.91;100.00;58652.34;4981231;28;47545;-84
2021/09/07 09:37:59;;;;;;;;;12.00;11.50;;;;;-147.91;100.00;58652.34;4977917;28;46674;-83
2021/09/07 09:40:26;;;;;;;;;13.25;10.50;;;;;-147.91;100.00;58652.34;4976846;28;45626;-83
2021/09/07 09:42:52;;;;;;;;;12.25;12.25;;;;;-147.91;100.00;58652.34;4982091;28;45595;-83
2021/09/07 09:45:18;;;;;;;;;12.00;12.00;;;;;-147.91;100.00;58652.34;4981898;28;45583;-83
2021/09/07 09:47:55;;;;;;;;;11.50;10.75;;;;;-147.91;100.00;58652.34;4981259;28;46343;-84
2021/09/07 09:50:22;;;;;;;;;12.00;9.00;;;;;-147.91;100.00;58652.34;4978187;28;45603;-82
2021/09/07 09:52:48;;;;;;;;;7.00;6.00;;;;;-147.91;100.00;58652.34;4977583;28;45545;-84
2021/09/07 09:55:15;;;;;;;;;11.75;10.00;;;;;-147.91;100.00;58652.34;4979193;28;45761;-82
2021/09/07 09:57:41;;;;;;;;;10.25;9.50;;;;;-147.91;100.00;58652.34;4977019;28;48015;-82
2021/09/07 10:00:13;;;;;;;;;13.00;11.50;;;;;-147.91;100.00;58652.34;4960151;27;45952;-83
2021/09/07 10:02:39;;;;;;;;;14.25;9.00;;;;;-147.91;100.00;58652.34;5059517;27;45513;-81
2021/09/07 10:05:06;;;;;;;;;9.75;9.75;;;;;-147.91;100.00;58652.34;5047252;27;50605;-82
2021/09/07 10:07:32;;;;;;;;;16.25;11.75;;;;;-147.91;100.00;58652.34;5044348;27;46305;-83
2021/09/07 10:09:58;;;;;;;;;8.75;8.75;;;;;-147.91;100.00;58652.34;5054246;27;46067;-82
2021/09/07 10:12:29;;;;;;;;;13.75;8.00;;;;;-147.91;100.00;58652.34;5046669;27;46245;-82
2021/09/07 10:15:17;;;;;;;;;14.50;11.00;;;;;-147.91;100.00;58652.34;5030138;28;46917;-84
2021/09/07 10:17:46;;;;;;;;;12.00;12.00;;;;;-147.91;100.00;58652.34;5050415;28;47184;-82
2021/09/07 10:20:19;;;;;;;;;12.25;11.00;;;;;-147.91;100.00;58652.34;5052259;27;45575;-82
2021/09/07 10:25:58;;;;;;;;;10.00;9.25;;;;;-147.91;100.00;58652.34;5043794;27;48821;-83
2021/09/07 10:28:42;;;;;;;;;10.00;9.75;;;;;-147.91;100.00;58652.34;5039941;27;48344;-82
2021/09/07 10:31:15;;;;;;;;;11.00;10.00;;;;;-147.91;100.00;58652.34;5054514;28;45577;-83
2021/09/07 10:33:46;;;;;;;;;12.25;10.00;;;;;-147.91;100.00;58652.34;5038240;28;45943;-83
2021/09/07 10:36:13;;;;;;;;;11.00;9.75;;;;;-147.91;100.00;58652.34;5049579;27;45560;-82
2021/09/07 10:38:44;;;;;;;;;12.75;10.00;;;;;-147.91;100.00;58652.34;5057792;27;45880;-82
2021/09/07 10:41:30;;;;;;;;;12.75;10.50;;;;;-147.91;100.00;58652.34;5045480;28;45611;-82
2021/09/07 10:44:06;;;;;;;;;12.50;11.00;;;;;-147.91;100.00;58652.34;5045952;28;46274;-84
2021/09/07 10:46:55;;;;;;;;;10.00;10.00;;;;;-147.91;100.00;58652.34;5045844;27;45570;-83
2021/09/07 10:49:32;;;;;;;;;12.00;9.00;;;;;-147.91;100.00;58652.34;5055047;28;48277;-83
2021/09/07 10:52:12;;;;;;;;;12.50;11.75;;;;;-147.91;100.00;58652.34;5036402;28;45851;-82
2021/09/07 10:54:55;;;;;;;;;12.50;11.00;;;;;-147.91;100.00;58652.34;5050488;28;45501;-85
2021/09/07 10:57:36;;;;;;;;;11.25;10.25;;;;;-147.91;100.00;58652.34;5027356;28;45625;-83
2021/09/07 11:00:10;;;;;;;;;10.75;10.50;;;;;-147.91;100.00;58652.34;5049764;28;45596;-80
2021/09/07 11:02:49;;;;;;;;;11.25;10.25;;;;;-147.91;100.00;58652.34;5060487;28;45903;-85
2021/09/07 11:05:34;;;;;;;;;19.00;12.75;;;;;-147.91;100.00;58652.34;5047266;28;45543;-85
2021/09/07 11:08:06;;;;;;;;;11.50;9.25;;;;;-147.91;100.00;58652.34;5044386;28;45610;-83
2021/09/07 11:10:34;;;;;;;;;15.00;12.50;;;;;-147.91;100.00;58652.34;5036608;28;50838;-82
2021/09/07 11:13:13;;;;;;;;;12.50;10.25;;;;;-147.91;100.00;58652.34;5051034;28;45525;-83
2021/09/07 11:15:40;;;;;;;;;11.50;11.50;;;;;-147.91;100.00;58652.34;5030500;28;45497;-84
2021/09/07 11:18:15;;;;;;;;;10.75;10.50;;;;;-147.91;100.00;58652.34;5037434;27;46786;-83
2021/09/07 11:20:43;;;;;;;;;16.25;11.00;;;;;-147.91;100.00;58652.34;5031454;28;46757;-82